Time;durP1;ratioP1;P1;durP2;ratioP2;P2;SDS_P1;SDS_P2;PMS_P1;PMS_P2;Temp;Humidity;BMP_temperature;BMP_pressure;BME280_temperature;BME280_humidity;BME280_pressure;Samples;Min_cycle;Max_cycle;Signal;HPM_P1;HPM_P2
2022/08/29 00:00:14;;;;;;;3.83;1.63;;;16.10;99.90;;;;;;5018643;28;20539;-83
2022/08/29 00:02:41;;;;;;;3.53;1.50;;;16.00;99.90;;;;;;4994046;28;20974;-83
2022/08/29 00:05:08;;;;;;;3.50;1.50;;;16.00;99.90;;;;;;4993917;28;20502;-82
2022/08/29 00:07:35;;;;;;;4.30;1.70;;;16.00;99.90;;;;;;4996266;28;20550;-83
2022/08/29 00:10:03;;;;;;;4.03;1.57;;;16.00;99.90;;;;;;4994779;28;20846;-82
2022/08/29 00:12:31;;;;;;;3.70;1.30;;;16.00;99.90;;;;;;5003455;28;20454;-83
2022/08/29 00:14:58;;;;;;;2.33;1.10;;;15.90;99.90;;;;;;5071377;28;20870;-82
2022/08/29 00:17:25;;;;;;;3.70;1.50;;;15.90;99.90;;;;;;5096625;28;20489;-83
2022/08/29 00:19:52;;;;;;;6.33;1.97;;;15.90;99.90;;;;;;5026834;28;20461;-82
2022/08/29 00:22:19;;;;;;;2.80;1.20;;;15.80;99.90;;;;;;4994131;28;20537;-82
2022/08/29 00:24:46;;;;;;;3.63;1.27;;;15.80;99.90;;;;;;5055806;28;21236;-83
2022/08/29 00:27:13;;;;;;;4.73;1.57;;;15.80;99.90;;;;;;5097371;28;20575;-82
2022/08/29 00:29:41;;;;;;;2.90;1.50;;;15.70;99.90;;;;;;5019038;28;20537;-86
2022/08/29 00:32:08;;;;;;;3.60;1.83;;;15.80;99.90;;;;;;4994803;28;20518;-85
2022/08/29 00:34:35;;;;;;;5.63;1.50;;;15.70;99.90;;;;;;4995676;28;20549;-84
2022/08/29 00:37:02;;;;;;;4.40;1.60;;;15.70;99.90;;;;;;4993802;28;20453;-84
2022/08/29 00:39:28;;;;;;;3.50;1.50;;;15.70;99.90;;;;;;5065193;28;20542;-84
2022/08/29 00:41:57;;;;;;;5.20;1.40;;;15.60;99.90;;;;;;5095660;28;20446;-83
2022/08/29 00:44:24;;;;;;;4.63;2.00;;;15.60;99.90;;;;;;5085902;28;20452;-84
2022/08/29 00:46:56;;;;;;;3.43;1.40;;;15.60;99.90;;;;;;5016103;28;20588;-85
2022/08/29 00:49:28;;;;;;;7.80;1.70;;;15.60;99.90;;;;;;5100416;28;20492;-87
2022/08/29 00:51:57;;;;;;;3.77;1.73;;;15.60;99.90;;;;;;5103352;28;20478;-86
2022/08/29 00:54:24;;;;;;;4.57;1.40;;;15.60;99.90;;;;;;5098757;28;20487;-84
2022/08/29 00:56:52;;;;;;;3.93;1.67;;;15.50;99.90;;;;;;5101667;28;20485;-85
2022/08/29 00:59:21;;;;;;;4.00;1.33;;;15.60;99.90;;;;;;5036773;28;20958;-88
2022/08/29 01:01:48;;;;;;;6.03;1.90;;;15.50;99.90;;;;;;5093095;28;20457;-85
2022/08/29 01:04:17;;;;;;;3.47;1.60;;;15.40;99.90;;;;;;5020919;28;20490;-86
2022/08/29 01:06:44;;;;;;;3.10;1.40;;;15.40;99.90;;;;;;4997808;28;20870;-85
2022/08/29 01:09:12;;;;;;;4.67;1.67;;;15.40;99.90;;;;;;4999842;28;20529;-86
2022/08/29 01:14:26;;;;;;;5.93;1.70;;;15.40;99.90;;;;;;5069101;28;20957;-85
2022/08/29 01:16:56;;;;;;;3.07;1.50;;;15.40;99.90;;;;;;5087086;28;20473;-85
2022/08/29 01:19:37;;;;;;;4.10;1.70;;;15.20;99.90;;;;;;4997859;28;20494;-83
2022/08/29 01:22:16;;;;;;;3.87;1.50;;;15.20;99.90;;;;;;4996294;28;20498;-86
2022/08/29 01:24:49;;;;;;;3.73;1.33;;;15.20;99.90;;;;;;4997696;28;20459;-85
2022/08/29 01:27:18;;;;;;;2.93;1.80;;;15.20;99.90;;;;;;4994545;28;21018;-86
2022/08/29 01:29:45;;;;;;;3.50;1.53;;;15.20;99.90;;;;;;4998603;28;20454;-84
2022/08/29 01:32:13;;;;;;;3.23;1.60;;;15.10;99.90;;;;;;4992271;28;20522;-85
2022/08/29 01:34:40;;;;;;;3.67;1.50;;;15.00;99.90;;;;;;5082043;28;20529;-84
2022/08/29 01:37:10;;;;;;;3.53;1.60;;;14.90;99.90;;;;;;5098925;28;20456;-84
2022/08/29 01:39:39;;;;;;;4.80;1.77;;;14.90;99.90;;;;;;5008206;28;20460;-84
2022/08/29 01:42:10;;;;;;;5.73;1.70;;;14.90;99.90;;;;;;5014848;28;20975;-85
2022/08/29 01:44:38;;;;;;;4.53;1.70;;;14.90;99.90;;;;;;4975240;28;20527;-84
2022/08/29 01:47:06;;;;;;;6.00;1.63;;;14.80;99.90;;;;;;5000008;28;20569;-87
2022/08/29 01:49:35;;;;;;;5.27;1.90;;;14.80;99.90;;;;;;5091302;28;20494;-86
2022/08/29 01:52:03;;;;;;;3.40;1.40;;;14.80;99.90;;;;;;5081842;28;20455;-85
2022/08/29 01:54:30;;;;;;;3.40;1.77;;;14.80;99.90;;;;;;5001105;28;20451;-85
2022/08/29 01:56:57;;;;;;;3.73;1.73;;;14.80;99.90;;;;;;5004369;28;20474;-86
2022/08/29 01:59:27;;;;;;;3.33;1.40;;;14.80;99.90;;;;;;5098627;28;20454;-85
2022/08/29 02:01:58;;;;;;;3.40;1.30;;;14.60;99.90;;;;;;5063193;28;20554;-85
2022/08/29 02:04:26;;;;;;;3.23;1.50;;;14.70;99.90;;;;;;4995874;28;20464;-85
2022/08/29 02:06:54;;;;;;;4.77;1.50;;;14.70;99.90;;;;;;5003622;28;20526;-86
2022/08/29 02:09:21;;;;;;;4.87;1.80;;;14.70;99.90;;;;;;4996265;28;20459;-85
2022/08/29 02:11:48;;;;;;;4.17;1.70;;;14.60;99.90;;;;;;5020384;28;20551;-85
2022/08/29 02:14:15;;;;;;;3.97;1.57;;;14.60;99.90;;;;;;5097753;28;20877;-85
2022/08/29 02:16:43;;;;;;;4.13;1.63;;;14.60;99.90;;;;;;5050855;28;20577;-85
2022/08/29 02:19:10;;;;;;;3.73;1.57;;;14.60;99.90;;;;;;4995651;28;20833;-84
2022/08/29 02:21:38;;;;;;;3.57;1.50;;;14.70;99.90;;;;;;5018815;28;20458;-85
2022/08/29 02:24:06;;;;;;;4.70;1.43;;;14.60;99.90;;;;;;4996692;28;20832;-85
2022/08/29 02:26:33;;;;;;;5.80;1.57;;;14.50;99.90;;;;;;5029411;28;20503;-86
2022/08/29 02:29:00;;;;;;;3.70;1.60;;;14.50;99.90;;;;;;5100240;28;20537;-85
2022/08/29 02:31:27;;;;;;;3.70;1.47;;;14.40;99.90;;;;;;5041058;28;20464;-85
2022/08/29 02:33:55;;;;;;;5.63;1.90;;;14.50;99.90;;;;;;4995518;28;20462;-85
2022/08/29 02:36:22;;;;;;;3.40;1.50;;;14.40;99.90;;;;;;5064366;28;20465;-87
2022/08/29 02:38:50;;;;;;;4.20;1.87;;;14.30;99.90;;;;;;5099148;28;20477;-86
2022/08/29 02:41:17;;;;;;;2.70;1.37;;;14.30;99.90;;;;;;5052260;28;20482;-87
2022/08/29 02:43:44;;;;;;;4.00;1.70;;;14.30;99.90;;;;;;5042225;28;20492;-87
2022/08/29 02:46:15;;;;;;;4.10;1.70;;;14.30;99.90;;;;;;5102002;28;20489;-87
2022/08/29 02:48:43;;;;;;;3.27;1.83;;;14.30;99.90;;;;;;5067068;28;20454;-86
2022/08/29 02:51:18;;;;;;;3.83;1.70;;;14.40;99.90;;;;;;5000706;28;20487;-86
2022/08/29 02:53:46;;;;;;;3.07;1.47;;;14.30;99.90;;;;;;5035504;28;20572;-87
2022/08/29 02:56:13;;;;;;;4.37;1.60;;;14.30;99.90;;;;;;5006604;28;20531;-86
2022/08/29 02:58:40;;;;;;;4.30;1.50;;;14.30;99.90;;;;;;5008358;28;20454;-85
2022/08/29 03:01:07;;;;;;;4.83;1.70;;;14.30;99.90;;;;;;4999325;28;20468;-85
2022/08/29 03:03:34;;;;;;;6.23;1.53;;;14.30;99.90;;;;;;4999801;28;21009;-85
2022/08/29 03:06:01;;;;;;;3.80;1.67;;;14.20;99.90;;;;;;4996966;28;20483;-85
2022/08/29 03:08:29;;;;;;;4.07;2.40;;;14.20;99.90;;;;;;4998994;28;20464;-86
2022/08/29 03:10:56;;;;;;;5.00;1.80;;;14.20;99.90;;;;;;5004877;28;20454;-87
2022/08/29 03:13:23;;;;;;;3.80;1.57;;;14.30;99.90;;;;;;4999530;28;20615;-84
2022/08/29 03:15:50;;;;;;;3.77;1.97;;;14.30;99.90;;;;;;4996945;28;20477;-83
2022/08/29 03:18:17;;;;;;;5.80;1.73;;;14.30;99.90;;;;;;5017478;28;20446;-85
2022/08/29 03:20:45;;;;;;;4.20;1.70;;;14.20;99.90;;;;;;5099662;28;20456;-85
2022/08/29 03:23:12;;;;;;;5.23;1.70;;;14.30;99.90;;;;;;5084064;28;21074;-84
2022/08/29 03:25:40;;;;;;;3.70;2.00;;;14.30;99.90;;;;;;4996339;28;20468;-86
2022/08/29 03:28:07;;;;;;;3.03;1.60;;;14.30;99.90;;;;;;5041393;28;20566;-85
2022/08/29 03:30:35;;;;;;;4.43;1.97;;;14.30;99.90;;;;;;5099264;28;20532;-84
2022/08/29 03:33:02;;;;;;;5.43;1.93;;;14.10;99.90;;;;;;5065671;28;20544;-84
2022/08/29 03:35:29;;;;;;;4.17;2.10;;;14.20;99.90;;;;;;4996537;28;20467;-86
2022/08/29 03:37:56;;;;;;;4.30;1.60;;;14.10;99.90;;;;;;5034553;28;20821;-84
2022/08/29 03:40:24;;;;;;;6.00;2.10;;;14.00;99.90;;;;;;5096801;28;20450;-86
2022/08/29 03:42:53;;;;;;;4.00;1.87;;;14.00;99.90;;;;;;5056682;28;20460;-83
2022/08/29 03:45:22;;;;;;;4.43;1.80;;;14.10;99.90;;;;;;4997219;28;20510;-85
2022/08/29 03:47:50;;;;;;;3.20;1.73;;;14.00;99.90;;;;;;4999186;28;20486;-84
2022/08/29 03:50:18;;;;;;;5.70;2.30;;;14.00;99.90;;;;;;4997509;28;20475;-86
2022/08/29 03:52:45;;;;;;;4.33;1.90;;;14.00;99.90;;;;;;5035638;28;20465;-85
2022/08/29 03:55:14;;;;;;;5.70;1.97;;;14.00;99.90;;;;;;5097449;28;20546;-88
2022/08/29 03:57:41;;;;;;;4.27;1.90;;;13.90;99.90;;;;;;5035103;28;20516;-84
2022/08/29 04:00:15;;;;;;;4.30;1.80;;;13.80;99.90;;;;;;5057360;28;20461;-84
2022/08/29 04:02:44;;;;;;;4.10;2.13;;;13.90;99.90;;;;;;5075066;28;20459;-83
2022/08/29 04:05:11;;;;;;;5.53;2.20;;;14.00;99.90;;;;;;5015637;28;20469;-84
2022/08/29 04:07:41;;;;;;;3.50;1.90;;;14.00;99.90;;;;;;4994685;28;20926;-87
2022/08/29 04:10:09;;;;;;;3.70;1.70;;;14.00;99.90;;;;;;4997279;28;20458;-84
2022/08/29 04:12:37;;;;;;;4.57;2.20;;;13.90;99.90;;;;;;5073601;28;20456;-85
2022/08/29 04:15:06;;;;;;;4.83;2.23;;;13.90;99.90;;;;;;5093308;28;20461;-87
2022/08/29 04:17:34;;;;;;;3.77;2.10;;;13.90;99.90;;;;;;4997959;28;20483;-85
2022/08/29 04:20:02;;;;;;;5.40;2.27;;;13.90;99.90;;;;;;4995852;28;20499;-85
2022/08/29 04:22:29;;;;;;;3.03;1.70;;;14.00;99.90;;;;;;5068510;28;20455;-87
2022/08/29 04:24:56;;;;;;;3.10;1.67;;;13.90;99.90;;;;;;5063965;28;20464;-86
2022/08/29 04:27:22;;;;;;;2.73;1.60;;;13.90;99.90;;;;;;5041598;28;20574;-86
2022/08/29 04:29:49;;;;;;;7.03;2.53;;;13.90;99.90;;;;;;5048706;28;20527;-84
2022/08/29 04:32:16;;;;;;;4.27;1.77;;;15.70;99.90;;;;;;5009911;28;20507;-83
2022/08/29 04:34:45;;;;;;;3.30;1.83;;;16.40;99.90;;;;;;5098370;28;20453;-84
2022/08/29 04:37:11;;;;;;;4.60;2.30;;;16.40;99.90;;;;;;5091133;28;20450;-84
2022/08/29 04:39:39;;;;;;;4.20;1.97;;;16.00;99.90;;;;;;5093927;28;20511;-83
2022/08/29 04:42:06;;;;;;;5.93;2.13;;;15.70;99.90;;;;;;5066542;28;20478;-83
2022/08/29 04:44:33;;;;;;;5.20;2.00;;;15.40;99.90;;;;;;5016304;28;20907;-81
2022/08/29 04:47:00;;;;;;;5.07;2.60;;;15.30;99.90;;;;;;5007498;28;20500;-85
2022/08/29 04:49:27;;;;;;;5.50;2.63;;;15.10;99.90;;;;;;5059198;28;20463;-85
2022/08/29 04:51:55;;;;;;;4.80;1.93;;;14.90;99.90;;;;;;4992581;28;21023;-86
2022/08/29 04:54:22;;;;;;;5.67;2.27;;;14.80;99.90;;;;;;4994598;28;21044;-85
2022/08/29 04:56:52;;;;;;;5.03;2.17;;;14.70;99.90;;;;;;5082214;28;20512;-82
2022/08/29 04:59:19;;;;;;;15.60;3.30;;;14.70;99.90;;;;;;5068926;28;20450;-81
2022/08/29 05:01:48;;;;;;;6.47;2.80;;;14.70;99.90;;;;;;5039683;28;20495;-82
2022/08/29 05:04:15;;;;;;;4.80;2.50;;;14.70;99.90;;;;;;4994337;28;20451;-82
2022/08/29 05:06:42;;;;;;;5.17;2.20;;;14.50;99.90;;;;;;4993884;28;20507;-82
2022/08/29 05:09:10;;;;;;;3.77;2.53;;;14.50;99.90;;;;;;4989909;28;20500;-82
2022/08/29 05:11:38;;;;;;;4.97;3.00;;;14.50;99.90;;;;;;4992405;28;20454;-83
2022/08/29 05:14:05;;;;;;;6.20;2.90;;;14.50;99.90;;;;;;5011026;28;20974;-82
2022/08/29 05:16:35;;;;;;;4.27;2.17;;;14.50;99.90;;;;;;5037609;28;20478;-83
2022/08/29 05:19:04;;;;;;;4.50;2.23;;;14.50;99.90;;;;;;5001030;28;20447;-81
2022/08/29 05:21:33;;;;;;;5.53;2.37;;;14.50;99.90;;;;;;5022300;28;20487;-82
2022/08/29 05:24:01;;;;;;;4.47;2.30;;;14.60;99.90;;;;;;4994292;28;20463;-82
2022/08/29 05:26:32;;;;;;;3.33;1.97;;;14.60;99.90;;;;;;4993563;28;20503;-82
2022/08/29 05:28:59;;;;;;;6.03;2.67;;;14.60;99.90;;;;;;5025802;28;20509;-81
2022/08/29 05:31:26;;;;;;;6.63;2.77;;;14.70;99.90;;;;;;5096009;28;20455;-82
2022/08/29 05:33:53;;;;;;;6.97;2.80;;;14.70;99.90;;;;;;5087180;28;20534;-81
2022/08/29 05:36:20;;;;;;;7.60;3.13;;;14.70;99.90;;;;;;4993452;28;20476;-81
2022/08/29 05:38:47;;;;;;;5.67;2.37;;;14.70;99.90;;;;;;4993886;28;20528;-81
2022/08/29 05:41:14;;;;;;;7.27;3.17;;;14.80;99.90;;;;;;5009618;28;20544;-88
2022/08/29 05:43:43;;;;;;;6.30;1.97;;;14.80;99.90;;;;;;4992688;28;20827;-82
2022/08/29 05:46:10;;;;;;;3.80;2.20;;;14.90;99.90;;;;;;4983084;28;20576;-83
2022/08/29 05:48:39;;;;;;;6.63;2.37;;;14.90;99.90;;;;;;5067363;28;20493;-82
2022/08/29 05:51:07;;;;;;;5.80;2.93;;;14.90;99.90;;;;;;5094307;28;20459;-81
2022/08/29 05:53:34;;;;;;;5.40;2.33;;;14.90;99.90;;;;;;5094581;28;20543;-82
2022/08/29 05:56:01;;;;;;;7.67;3.07;;;15.00;99.90;;;;;;5093860;28;20474;-83
2022/08/29 05:58:28;;;;;;;4.77;2.50;;;15.00;99.90;;;;;;5095798;28;20478;-81
2022/08/29 06:00:57;;;;;;;4.20;2.30;;;15.10;99.90;;;;;;5094369;28;20477;-82
2022/08/29 06:06:05;;;;;;;7.50;2.67;;;15.20;99.90;;;;;;4995144;28;20458;-84
2022/08/29 06:08:32;;;;;;;5.33;2.30;;;15.30;99.90;;;;;;5098678;28;20476;-81
2022/08/29 06:11:02;;;;;;;7.90;2.90;;;15.30;99.90;;;;;;5103093;28;20466;-82
2022/08/29 06:13:29;;;;;;;4.73;2.33;;;15.30;99.90;;;;;;5092894;28;20450;-83
2022/08/29 06:15:57;;;;;;;5.63;3.10;;;15.40;99.90;;;;;;5046430;28;20489;-80
2022/08/29 06:18:25;;;;;;;4.50;2.47;;;15.40;99.90;;;;;;4990000;28;21264;-82
2022/08/29 06:20:52;;;;;;;4.60;2.40;;;15.50;99.90;;;;;;5019847;28;20457;-83
2022/08/29 06:23:19;;;;;;;6.63;2.90;;;15.50;99.90;;;;;;4977550;28;20461;-89
2022/08/29 06:25:48;;;;;;;7.40;3.07;;;15.60;99.90;;;;;;4978755;28;20472;-83
2022/08/29 06:28:15;;;;;;;6.47;2.90;;;15.70;99.90;;;;;;4979726;28;20499;-82
2022/08/29 06:30:41;;;;;;;7.70;2.80;;;15.70;99.90;;;;;;4992118;28;20520;-84
2022/08/29 06:33:10;;;;;;;10.23;2.80;;;15.80;99.90;;;;;;5006065;28;20523;-84
2022/08/29 06:35:37;;;;;;;9.87;3.90;;;15.90;99.90;;;;;;5000211;28;20539;-84
2022/08/29 06:38:04;;;;;;;10.60;3.70;;;16.00;99.90;;;;;;5075234;28;20450;-86
2022/08/29 06:40:31;;;;;;;10.37;3.10;;;16.20;99.90;;;;;;5080779;28;20539;-83
2022/08/29 06:42:58;;;;;;;6.50;2.73;;;16.30;99.90;;;;;;5102731;28;20452;-84
2022/08/29 06:45:27;;;;;;;7.43;2.90;;;16.40;99.90;;;;;;5056249;28;20533;-83
2022/08/29 06:47:54;;;;;;;11.10;3.07;;;16.50;99.90;;;;;;5008932;28;20493;-86
2022/08/29 06:50:22;;;;;;;5.60;3.43;;;16.60;99.90;;;;;;5012359;28;20486;-85
2022/08/29 06:52:49;;;;;;;5.00;3.30;;;16.60;99.90;;;;;;5013124;28;20543;-87
2022/08/29 06:55:17;;;;;;;10.13;4.50;;;16.60;99.90;;;;;;4986893;28;20544;-85
2022/08/29 06:57:44;;;;;;;7.43;4.00;;;16.70;99.90;;;;;;4998615;28;20453;-85
2022/08/29 07:00:14;;;;;;;11.33;5.10;;;16.70;99.90;;;;;;4999899;28;20458;-84
2022/08/29 07:02:41;;;;;;;14.17;5.57;;;16.60;99.90;;;;;;4996213;28;20515;-85
2022/08/29 07:05:11;;;;;;;10.73;4.37;;;16.70;99.90;;;;;;4994122;28;20541;-83
2022/08/29 07:07:40;;;;;;;8.60;4.03;;;16.80;99.90;;;;;;5012625;28;20486;-83
2022/08/29 07:10:11;;;;;;;7.60;4.37;;;16.90;99.90;;;;;;4997376;28;20458;-82
2022/08/29 07:12:40;;;;;;;8.27;4.03;;;16.90;99.90;;;;;;4984839;28;20450;-84
2022/08/29 07:15:08;;;;;;;14.77;4.70;;;16.80;99.90;;;;;;4993885;28;20508;-86
2022/08/29 07:17:35;;;;;;;8.30;3.43;;;16.80;99.90;;;;;;4994385;28;20449;-84
2022/08/29 07:20:06;;;;;;;8.93;3.37;;;16.90;99.90;;;;;;4983410;28;20840;-85
2022/08/29 07:22:34;;;;;;;7.70;3.30;;;16.90;99.90;;;;;;4977389;28;20448;-83
2022/08/29 07:25:02;;;;;;;6.50;3.70;;;16.80;99.90;;;;;;4999510;28;20499;-84
2022/08/29 07:27:29;;;;;;;5.17;2.90;;;17.00;99.90;;;;;;4994336;28;20496;-84
2022/08/29 07:29:56;;;;;;;7.77;3.37;;;17.00;99.90;;;;;;5065177;28;20453;-84
2022/08/29 07:32:23;;;;;;;6.33;3.30;;;17.20;99.90;;;;;;5096208;28;20538;-84
2022/08/29 07:34:50;;;;;;;5.13;3.43;;;17.20;99.90;;;;;;5094128;28;20521;-85
2022/08/29 07:37:17;;;;;;;6.10;3.10;;;17.30;99.90;;;;;;5096944;28;20510;-84
2022/08/29 07:39:43;;;;;;;7.27;2.80;;;17.30;99.90;;;;;;5068361;28;20511;-83
2022/08/29 07:42:12;;;;;;;6.73;3.47;;;17.40;99.90;;;;;;4993922;28;21101;-85
2022/08/29 07:44:39;;;;;;;6.93;3.40;;;17.40;99.90;;;;;;5019908;28;20561;-84
2022/08/29 07:47:06;;;;;;;8.20;3.90;;;17.50;99.90;;;;;;4993996;28;20491;-84
2022/08/29 07:49:33;;;;;;;6.50;3.60;;;17.60;99.90;;;;;;5042946;28;20585;-84
2022/08/29 07:52:00;;;;;;;6.03;3.07;;;17.60;99.90;;;;;;4995930;28;20456;-84
2022/08/29 07:54:27;;;;;;;10.10;3.17;;;17.50;99.90;;;;;;5042720;28;20448;-86
2022/08/29 07:56:54;;;;;;;10.73;3.50;;;17.60;99.90;;;;;;5040237;28;20472;-85
2022/08/29 07:59:22;;;;;;;9.20;3.30;;;17.70;99.90;;;;;;4996672;28;20542;-84
2022/08/29 08:01:49;;;;;;;5.97;2.70;;;17.70;99.90;;;;;;4995782;28;20481;-83
2022/08/29 08:04:16;;;;;;;4.50;2.60;;;17.90;99.90;;;;;;4994006;28;20522;-83
2022/08/29 08:06:44;;;;;;;6.00;2.70;;;18.00;99.90;;;;;;5051787;28;20583;-83
2022/08/29 08:09:12;;;;;;;4.80;2.70;;;18.10;99.90;;;;;;4994546;28;20489;-81
2022/08/29 08:11:40;;;;;;;4.33;2.40;;;18.20;99.90;;;;;;4993648;28;20453;-82
2022/08/29 08:14:07;;;;;;;7.03;3.47;;;18.20;99.90;;;;;;5088163;28;20499;-83
2022/08/29 08:16:36;;;;;;;5.80;2.67;;;18.30;99.90;;;;;;5096314;28;20856;-86
2022/08/29 08:19:03;;;;;;;7.17;2.43;;;18.40;99.90;;;;;;5001693;28;21112;-85
2022/08/29 08:21:30;;;;;;;6.20;2.90;;;18.50;99.90;;;;;;4994302;28;20867;-86
2022/08/29 08:23:58;;;;;;;4.57;1.90;;;18.60;99.90;;;;;;5079307;28;20548;-82
2022/08/29 08:26:25;;;;;;;5.20;2.50;;;18.70;99.90;;;;;;5096444;28;20487;-84
2022/08/29 08:28:53;;;;;;;9.30;3.13;;;18.80;99.90;;;;;;5035581;28;20486;-85
2022/08/29 08:31:20;;;;;;;7.67;3.10;;;18.90;99.90;;;;;;4993499;28;20544;-84
2022/08/29 08:33:49;;;;;;;8.10;2.13;;;19.00;99.90;;;;;;5085110;28;20548;-83
2022/08/29 08:36:18;;;;;;;4.07;2.53;;;19.20;99.90;;;;;;5096078;28;20509;-84
2022/08/29 08:38:46;;;;;;;6.73;2.70;;;19.20;99.90;;;;;;5096202;28;20860;-83
2022/08/29 08:41:35;;;;;;;3.90;2.20;;;19.60;99.90;;;;;;5094722;28;20454;-83
2022/08/29 08:44:05;;;;;;;4.17;1.93;;;19.80;99.90;;;;;;4987240;28;20517;-83
2022/08/29 08:46:38;;;;;;;6.07;2.20;;;19.80;99.90;;;;;;5024884;28;20486;-84
2022/08/29 08:49:10;;;;;;;6.07;2.07;;;19.70;99.90;;;;;;5092637;28;20506;-85
2022/08/29 08:51:39;;;;;;;9.20;2.13;;;19.80;99.90;;;;;;5022222;28;20459;-84
2022/08/29 08:54:17;;;;;;;7.20;2.43;;;19.80;99.90;;;;;;4999404;28;20474;-87
2022/08/29 08:56:49;;;;;;;5.53;1.90;;;19.80;99.90;;;;;;5020131;28;20593;-84
2022/08/29 08:59:21;;;;;;;4.90;2.03;;;20.10;99.90;;;;;;5015981;28;20486;-87
2022/08/29 09:02:00;;;;;;;5.20;2.50;;;20.10;99.90;;;;;;4992220;28;20549;-87
2022/08/29 09:04:48;;;;;;;7.23;2.63;;;20.20;99.90;;;;;;4997271;28;20477;-83
2022/08/29 09:07:33;;;;;;;6.47;1.90;;;20.30;99.90;;;;;;4999934;28;20463;-86
2022/08/29 09:10:16;;;;;;;7.17;2.80;;;20.30;99.90;;;;;;5026937;28;20470;-85
2022/08/29 09:12:57;;;;;;;6.63;1.90;;;20.30;99.90;;;;;;5078089;28;20483;-84
2022/08/29 09:15:29;;;;;;;6.13;2.23;;;20.40;99.90;;;;;;4998172;28;20478;-85
2022/08/29 09:18:00;;;;;;;8.10;2.53;;;20.50;99.90;;;;;;5002055;28;20508;-88
2022/08/29 09:20:31;;;;;;;5.70;2.90;;;20.80;99.90;;;;;;4988604;28;20549;-86
2022/08/29 09:23:01;;;;;;;5.23;2.37;;;21.10;99.90;;;;;;4987221;28;20459;-85
2022/08/29 09:25:29;;;;;;;6.80;3.13;;;21.40;99.90;;;;;;4998614;28;20908;-85
2022/08/29 09:27:57;;;;;;;5.37;2.50;;;21.40;99.90;;;;;;4988060;28;20447;-86
2022/08/29 09:30:26;;;;;;;5.70;2.60;;;21.50;99.90;;;;;;5006532;28;20463;-85
2022/08/29 09:33:07;;;;;;;8.93;2.13;;;21.30;99.90;;;;;;4984973;28;20979;-86
2022/08/29 09:35:39;;;;;;;6.40;2.20;;;21.30;99.90;;;;;;4995437;28;20478;-85
2022/08/29 09:38:09;;;;;;;7.60;2.40;;;21.20;99.90;;;;;;4999114;28;20454;-85
2022/08/29 09:40:48;;;;;;;5.90;2.00;;;21.10;99.90;;;;;;4997806;28;20577;-85
2022/08/29 09:43:19;;;;;;;4.30;2.30;;;20.90;99.90;;;;;;4989579;28;20533;-85
2022/08/29 09:46:17;;;;;;;4.83;2.30;;;21.00;99.90;;;;;;4990511;28;20498;-85
2022/08/29 09:48:46;;;;;;;6.27;2.50;;;21.20;99.90;;;;;;4991883;28;20489;-86
2022/08/29 09:51:23;;;;;;;7.07;2.10;;;21.60;99.90;;;;;;5001934;28;20520;-88
2022/08/29 09:53:51;;;;;;;6.27;2.57;;;21.70;99.90;;;;;;4991225;28;20519;-87
2022/08/29 09:56:22;;;;;;;5.43;2.33;;;21.50;99.90;;;;;;5051684;28;20478;-87
2022/08/29 09:59:00;;;;;;;5.73;2.10;;;21.50;99.90;;;;;;4989712;28;20454;-86
2022/08/29 10:01:29;;;;;;;5.23;2.40;;;21.20;99.90;;;;;;4995677;28;20837;-86
2022/08/29 10:03:58;;;;;;;7.73;2.63;;;21.00;99.90;;;;;;5001404;28;20458;-83
2022/08/29 10:06:28;;;;;;;3.97;2.10;;;21.00;99.90;;;;;;5004515;28;20474;-85
2022/08/29 10:08:58;;;;;;;5.97;2.83;;;21.30;99.90;;;;;;4998412;28;20837;-86
2022/08/29 10:11:30;;;;;;;6.37;3.80;;;21.70;99.90;;;;;;5000161;28;21008;-87
2022/08/29 10:14:02;;;;;;;5.97;2.63;;;22.10;99.90;;;;;;4999316;28;20546;-85
2022/08/29 10:16:46;;;;;;;8.63;3.07;;;22.30;99.90;;;;;;4994070;28;20491;-87
2022/08/29 10:19:25;;;;;;;13.97;3.73;;;22.50;99.90;;;;;;4999178;28;21003;-85
2022/08/29 10:32:01;;;;;;;7.10;2.30;;;23.50;99.90;;;;;;4977069;28;20533;-84
2022/08/29 10:44:46;;;;;;;3.30;2.07;;;23.30;99.90;;;;;;5049638;28;20439;-84
2022/08/29 10:47:25;;;;;;;5.90;2.60;;;23.50;99.90;;;;;;5060795;28;20535;-84
2022/08/29 10:50:03;;;;;;;7.80;2.60;;;23.70;99.90;;;;;;5063796;28;20471;-84
2022/08/29 10:52:38;;;;;;;6.93;3.00;;;23.60;99.90;;;;;;5061463;28;20479;-85
2022/08/29 10:55:14;;;;;;;10.47;2.87;;;23.70;99.90;;;;;;5055162;28;20499;-85
2022/08/29 10:57:49;;;;;;;7.77;3.50;;;23.80;99.90;;;;;;5061927;28;20454;-83
2022/08/29 11:00:36;;;;;;;9.57;4.20;;;23.70;99.90;;;;;;5055287;28;20452;-85
2022/08/29 11:03:59;;;;;;;9.70;3.47;;;23.60;99.90;;;;;;5056866;28;20461;-86
2022/08/29 11:07:04;;;;;;;6.43;3.47;;;23.80;99.90;;;;;;5058968;28;20533;-85
2022/08/29 11:09:48;;;;;;;7.73;3.20;;;24.40;99.90;;;;;;5050525;28;20510;-85
2022/08/29 11:29:36;;;;;;;8.87;2.43;;;25.60;99.90;;;;;;4964771;28;20471;-86
2022/08/29 11:46:53;;;;;;;;;;;;;;;;;;;;;
2022/08/29 11:50:00;;;;;;;4.63;2.57;;;26.40;99.90;;;;;;4978994;28;20487;-85
2022/08/29 12:13:57;;;;;;;5.20;2.80;;;27.80;99.90;;;;;;4981702;28;20578;-86
2022/08/29 12:23:34;;;;;;;5.93;3.30;;;28.60;99.90;;;;;;4829601;29;20538;-84
2022/08/29 12:26:40;;;;;;;5.47;2.40;;;28.90;99.90;;;;;;4846114;29;21009;-86
2022/08/29 12:36:17;;;;;;;7.87;3.07;;;28.60;99.90;;;;;;4928329;28;20536;-84
2022/08/29 12:39:03;;;;;;;4.73;2.50;;;28.70;99.90;;;;;;5071781;28;20456;-84
2022/08/29 12:41:41;;;;;;;5.90;2.67;;;28.80;99.90;;;;;;5073292;28;20539;-85
2022/08/29 12:44:15;;;;;;;5.13;2.87;;;29.00;99.90;;;;;;5072189;28;20454;-85
2022/08/29 12:46:45;;;;;;;5.97;2.60;;;28.90;99.90;;;;;;5071716;28;20471;-85
2022/08/29 12:49:20;;;;;;;4.20;2.00;;;28.90;99.90;;;;;;5071406;28;21006;-85
2022/08/29 12:51:50;;;;;;;6.47;2.70;;;29.00;99.90;;;;;;5072714;28;20542;-86
2022/08/29 12:54:31;;;;;;;6.60;2.73;;;29.10;99.90;;;;;;5056278;28;20487;-86
2022/08/29 12:56:59;;;;;;;7.10;2.80;;;29.10;99.90;;;;;;5072512;28;20979;-86
2022/08/29 12:59:26;;;;;;;7.53;2.90;;;29.10;99.90;;;;;;5070947;28;20446;-86
2022/08/29 13:01:56;;;;;;;5.63;2.90;;;29.30;99.90;;;;;;5080734;28;20490;-89
2022/08/29 13:04:25;;;;;;;11.20;2.77;;;28.90;99.90;;;;;;5074900;28;20483;-86
2022/08/29 13:06:55;;;;;;;5.93;2.73;;;28.80;99.90;;;;;;5075534;28;20475;-85
2022/08/29 13:09:29;;;;;;;7.23;2.30;;;28.90;99.90;;;;;;5074493;28;20513;-86
2022/08/29 13:12:15;;;;;;;5.30;2.83;;;29.20;99.90;;;;;;5070108;28;20541;-85
2022/08/29 13:14:52;;;;;;;5.10;3.00;;;29.30;99.90;;;;;;5073673;28;20486;-86
2022/08/29 13:17:21;;;;;;;5.20;2.83;;;29.60;99.80;;;;;;5073046;28;20458;-86
2022/08/29 13:20:25;;;;;;;5.23;2.40;;;29.90;99.90;;;;;;5072692;28;20479;-84
2022/08/29 13:23:09;;;;;;;4.60;2.53;;;30.00;99.80;;;;;;5052115;28;20542;-88
2022/08/29 13:25:44;;;;;;;4.77;3.20;;;29.50;94.60;;;;;;5054648;28;20474;-85
2022/08/29 13:28:14;;;;;;;9.40;2.73;;;29.70;97.50;;;;;;5071926;28;20459;-86
2022/08/29 13:30:41;;;;;;;9.30;2.63;;;29.40;97.00;;;;;;5058860;28;20484;-86
2022/08/29 13:33:22;;;;;;;7.00;2.70;;;29.50;99.90;;;;;;5067901;28;20458;-86
2022/08/29 13:35:49;;;;;;;6.50;2.37;;;29.60;97.30;;;;;;5079559;28;21078;-86
2022/08/29 13:38:22;;;;;;;7.83;2.67;;;29.60;99.90;;;;;;5072398;28;20530;-85
2022/08/29 13:40:52;;;;;;;5.47;3.00;;;29.60;98.40;;;;;;5072276;28;20482;-86
2022/08/29 13:43:33;;;;;;;6.10;4.33;;;29.70;95.40;;;;;;5072263;28;20531;-86
2022/08/29 13:46:14;;;;;;;7.33;2.67;;;29.80;97.50;;;;;;5072443;28;21058;-85
2022/08/29 13:48:42;;;;;;;4.90;2.77;;;29.60;98.50;;;;;;5073265;28;20901;-86
2022/08/29 13:51:09;;;;;;;8.70;3.00;;;29.80;97.50;;;;;;5072723;28;20490;-85
2022/08/29 13:53:36;;;;;;;5.13;2.83;;;29.50;95.00;;;;;;5073407;28;21042;-85
2022/08/29 13:56:18;;;;;;;6.20;2.80;;;29.50;98.30;;;;;;5071723;28;20477;-85
2022/08/29 13:58:45;;;;;;;5.30;2.63;;;29.40;99.90;;;;;;5073473;28;20537;-85
2022/08/29 14:01:12;;;;;;;5.47;3.07;;;29.40;99.00;;;;;;5072922;28;20457;-85
2022/08/29 14:03:39;;;;;;;4.60;2.37;;;28.90;99.00;;;;;;5111405;22;21130;-78
2022/08/29 14:06:06;;;;;;;6.73;2.47;;;29.10;99.10;;;;;;5070685;28;21037;-82
2022/08/29 14:08:33;;;;;;;4.10;2.90;;;29.10;98.90;;;;;;5086339;28;20502;-81
2022/08/29 14:10:59;;;;;;;5.20;2.40;;;29.10;98.00;;;;;;5085646;28;20536;-81
2022/08/29 14:13:28;;;;;;;8.20;3.30;;;29.00;96.70;;;;;;5085032;28;20474;-80
2022/08/29 14:15:54;;;;;;;4.90;2.67;;;29.10;96.50;;;;;;5081814;28;20450;-79
2022/08/29 14:18:21;;;;;;;6.30;2.80;;;29.10;96.60;;;;;;5080000;28;20857;-79
2022/08/29 14:20:48;;;;;;;4.27;2.53;;;29.20;97.30;;;;;;5083422;28;20907;-80
2022/08/29 14:23:15;;;;;;;6.77;2.80;;;29.30;99.60;;;;;;5081814;28;20558;-79
2022/08/29 14:25:42;;;;;;;4.40;1.93;;;29.30;96.40;;;;;;5082688;28;20447;-81
2022/08/29 14:28:09;;;;;;;3.17;1.90;;;29.30;94.20;;;;;;5079368;28;20902;-80
2022/08/29 14:30:37;;;;;;;5.27;2.20;;;29.30;95.10;;;;;;5082669;28;20513;-79
2022/08/29 14:33:04;;;;;;;4.67;2.50;;;29.40;94.50;;;;;;5082325;28;20459;-79
2022/08/29 14:35:31;;;;;;;3.90;2.20;;;29.50;94.00;;;;;;5083189;28;20474;-80